createdAt,value
2023-03-17T00:00:23.480Z,0.80
2023-03-17T00:02:57.601Z,0.80
2023-03-17T00:05:32.471Z,0.88
2023-03-17T00:08:02.587Z,0.95
2023-03-17T00:10:36.499Z,0.77
2023-03-17T00:13:04.055Z,1.00
2023-03-17T00:18:05.613Z,1.08
2023-03-17T00:20:33.378Z,0.80
2023-03-17T00:23:10.664Z,0.65
2023-03-17T00:25:43.017Z,1.00
2023-03-17T00:28:20.698Z,1.08
2023-03-17T00:30:54.607Z,0.98
2023-03-17T00:33:24.482Z,1.05
2023-03-17T00:35:58.595Z,1.63
2023-03-17T00:38:26.109Z,0.93
2023-03-17T00:40:59.633Z,1.00
2023-03-17T00:43:29.746Z,0.90
2023-03-17T00:45:57.638Z,1.00
2023-03-17T00:48:31.746Z,1.00
2023-03-17T00:50:59.513Z,0.80
2023-03-17T00:53:27.068Z,1.02
2023-03-17T00:58:29.028Z,0.93
2023-03-17T01:01:03.669Z,0.85
2023-03-17T01:03:31.167Z,0.88
2023-03-17T01:05:58.278Z,1.23
2023-03-17T01:08:32.719Z,1.30
2023-03-17T01:11:00.360Z,1.13
2023-03-17T01:16:02.631Z,1.05
2023-03-17T01:18:29.889Z,1.15
2023-03-17T01:21:03.662Z,0.93
2023-03-17T01:23:31.685Z,0.93
2023-03-17T01:26:05.624Z,1.42
2023-03-17T01:28:33.466Z,1.08
2023-03-17T01:31:00.623Z,1.35
2023-03-17T01:33:34.632Z,1.30
2023-03-17T01:36:01.973Z,1.15
2023-03-17T01:38:36.626Z,1.08
2023-03-17T01:41:04.140Z,1.20
2023-03-17T01:46:23.673Z,1.33
2023-03-17T01:49:22.476Z,1.00
2023-03-17T01:52:05.545Z,1.35
2023-03-17T01:54:55.563Z,1.08
2023-03-17T01:57:35.524Z,1.13
2023-03-17T02:00:05.763Z,1.00
2023-03-17T02:02:41.500Z,1.00
2023-03-17T02:05:10.219Z,1.23
2023-03-17T02:07:44.665Z,0.98
2023-03-17T02:10:12.683Z,1.20
2023-03-17T05:53:20.601Z,1.70
2023-03-17T05:55:47.789Z,1.40
2023-03-17T05:58:16.683Z,1.98
2023-03-17T06:00:50.711Z,1.65
2023-03-17T06:03:17.954Z,1.70
2023-03-17T06:05:45.834Z,2.50
2023-03-17T06:08:19.651Z,2.33
2023-03-17T06:10:47.596Z,2.00
2023-03-17T06:13:21.827Z,2.42
2023-03-17T06:15:49.222Z,2.35
2023-03-17T06:18:16.377Z,2.10
2023-03-17T06:20:49.663Z,2.35
2023-03-17T06:23:17.326Z,2.15
2023-03-17T06:25:50.772Z,2.58
2023-03-17T06:28:18.481Z,2.10
2023-03-17T06:30:45.696Z,2.22
2023-03-17T06:33:19.633Z,2.63
2023-03-17T06:35:46.927Z,2.22
2023-03-17T06:38:21.148Z,2.50
2023-03-17T06:40:48.327Z,2.20
2023-03-17T06:43:15.618Z,1.98
2023-03-17T06:45:49.771Z,2.47
2023-03-17T06:48:17.663Z,2.47
2023-03-17T06:50:47.377Z,2.35
2023-03-17T06:53:21.765Z,2.45
2023-03-17T06:55:48.963Z,2.40
2023-03-17T06:58:23.691Z,2.30
2023-03-17T07:00:53.984Z,2.40
2023-03-17T07:03:22.539Z,2.67
2023-03-17T07:05:56.647Z,2.70
2023-03-17T07:08:23.934Z,2.38
2023-03-17T07:10:57.832Z,2.75
2023-03-17T07:13:25.813Z,2.60
2023-03-17T07:15:55.351Z,2.28
2023-03-17T07:18:29.751Z,2.63
2023-03-17T07:20:57.399Z,2.65
2023-03-17T07:25:58.091Z,2.75
2023-03-17T07:28:25.436Z,2.67
2023-03-17T07:31:00.358Z,2.80
2023-03-17T07:33:27.577Z,2.88
2023-03-17T07:36:01.792Z,2.80
2023-03-17T07:38:29.025Z,3.42
2023-03-17T07:40:56.436Z,2.70
2023-03-17T07:43:29.777Z,3.00
2023-03-17T07:45:57.112Z,2.92
2023-03-17T07:48:24.223Z,3.38
2023-03-17T07:50:57.714Z,3.08
2023-03-17T07:53:44.584Z,2.85
2023-03-17T07:56:18.961Z,2.97
2023-03-17T07:58:46.087Z,3.35
2023-03-17T08:01:13.281Z,2.95
2023-03-17T08:03:52.841Z,3.38
2023-03-17T08:06:20.439Z,2.72
2023-03-17T08:09:01.830Z,3.28
2023-03-17T08:11:29.629Z,3.60
2023-03-17T08:13:56.878Z,2.97
2023-03-17T08:16:30.887Z,3.47
2023-03-17T08:18:58.944Z,3.47
2023-03-17T08:21:33.907Z,3.63
2023-03-17T08:24:01.640Z,3.47
2023-03-17T08:26:28.725Z,3.45
2023-03-17T08:29:02.707Z,3.80
2023-03-17T08:31:30.166Z,3.33
2023-03-17T08:33:57.562Z,3.92
2023-03-17T08:36:31.720Z,3.25
2023-03-17T08:38:59.190Z,3.25
2023-03-17T08:41:33.889Z,3.00
2023-03-17T08:44:01.085Z,4.05
2023-03-17T08:46:31.237Z,4.47
2023-03-17T08:49:05.784Z,3.28
2023-03-17T08:51:34.729Z,4.05
2023-03-17T08:54:15.793Z,3.50
2023-03-17T08:56:43.198Z,4.93
2023-03-17T08:59:10.892Z,3.47
2023-03-17T09:01:44.724Z,3.90
2023-03-17T09:04:11.904Z,3.83
2023-03-17T09:07:01.888Z,3.58
2023-03-17T09:09:31.084Z,3.85
2023-03-17T09:12:04.682Z,3.55
2023-03-17T09:14:43.833Z,3.97
2023-03-17T09:17:11.814Z,4.43
2023-03-17T09:19:45.622Z,3.88
2023-03-17T09:22:14.263Z,3.78
2023-03-17T09:24:41.962Z,4.13
2023-03-17T09:27:15.753Z,4.00
2023-03-17T09:29:42.999Z,3.75
2023-03-17T09:32:16.813Z,4.25
2023-03-17T09:34:43.929Z,4.43
2023-03-17T09:37:17.716Z,4.43
2023-03-17T09:39:44.792Z,3.92
2023-03-17T09:42:15.029Z,3.80
2023-03-17T09:45:05.801Z,3.72
2023-03-17T09:47:40.086Z,3.90
2023-03-17T09:50:20.742Z,4.38
2023-03-17T09:52:54.786Z,3.90
2023-03-17T09:55:36.782Z,3.55
2023-03-17T09:58:04.455Z,4.20
2023-03-17T10:03:08.129Z,4.30
2023-03-17T10:05:36.449Z,4.40
2023-03-17T10:08:31.271Z,4.90
2023-03-17T10:11:02.703Z,4.32
2023-03-17T10:13:55.735Z,5.10
2023-03-17T10:16:32.638Z,4.60
2023-03-17T10:19:28.708Z,4.82
2023-03-17T10:22:08.623Z,4.70
2023-03-17T10:24:43.748Z,4.35
2023-03-17T10:27:17.626Z,5.72
2023-03-17T10:29:51.714Z,4.45
2023-03-17T10:32:25.605Z,4.88
2023-03-17T10:34:52.837Z,4.72
2023-03-17T10:37:27.611Z,4.72
2023-03-17T10:39:56.978Z,4.32
2023-03-17T10:42:32.631Z,4.32
2023-03-17T10:45:08.929Z,4.30
2023-03-17T10:47:44.604Z,4.90
2023-03-17T10:50:26.176Z,4.25
2023-03-17T10:53:01.647Z,4.32
2023-03-17T10:55:36.970Z,5.70
2023-03-17T10:58:12.702Z,4.43
2023-03-17T11:00:40.043Z,4.13
2023-03-17T11:03:12.364Z,4.72
2023-03-17T11:05:45.646Z,3.95
2023-03-17T11:08:18.609Z,3.97
2023-03-17T11:10:52.773Z,4.57
2023-03-17T11:13:19.869Z,4.28
2023-03-17T11:16:19.811Z,3.80
2023-03-17T11:18:48.383Z,5.20
2023-03-17T11:21:30.815Z,4.78
2023-03-17T11:24:12.909Z,4.40
2023-03-17T11:26:50.828Z,3.78
2023-03-17T11:29:23.941Z,3.72
2023-03-17T11:32:27.894Z,4.15
2023-03-17T11:35:01.472Z,3.70
2023-03-17T11:37:35.770Z,4.05
2023-03-17T11:40:21.546Z,4.47
2023-03-17T11:43:15.700Z,3.90
2023-03-17T11:45:55.304Z,4.10
2023-03-17T11:48:38.725Z,4.50
2023-03-17T11:51:11.551Z,4.43
2023-03-17T11:54:00.842Z,4.63
2023-03-17T11:56:37.619Z,4.28
2023-03-17T11:59:13.851Z,4.53
2023-03-17T12:02:07.293Z,4.60
2023-03-17T12:04:45.842Z,3.97
2023-03-17T12:07:21.309Z,5.80
2023-03-17T12:10:01.955Z,4.65
2023-03-17T12:12:31.009Z,4.20
2023-03-17T12:14:59.642Z,4.30
2023-03-17T12:17:44.648Z,3.88
2023-03-17T12:20:25.564Z,4.03
2023-03-17T12:23:02.789Z,4.20
2023-03-17T12:25:35.030Z,3.93
2023-03-17T12:28:15.792Z,4.10
2023-03-17T12:30:52.882Z,4.45
2023-03-17T12:33:32.636Z,4.40
2023-03-17T12:36:01.102Z,4.90
2023-03-17T12:38:34.726Z,4.20
2023-03-17T12:41:05.581Z,4.65
2023-03-17T12:43:59.942Z,4.93
2023-03-17T12:46:48.162Z,6.05
2023-03-17T12:49:39.657Z,6.63
2023-03-17T12:52:14.269Z,6.97
2023-03-17T12:54:58.819Z,4.28
2023-03-17T12:57:39.277Z,4.13
2023-03-17T13:00:22.880Z,4.40
2023-03-17T13:02:51.499Z,5.20
2023-03-17T13:05:34.900Z,4.45
2023-03-17T13:08:02.754Z,3.97
2023-03-17T13:10:49.933Z,4.10
2023-03-17T13:13:37.667Z,4.80
2023-03-17T13:16:12.999Z,4.70
2023-03-17T13:18:42.970Z,4.40
2023-03-17T13:21:12.298Z,4.57
2023-03-17T13:23:48.739Z,3.95
2023-03-17T13:26:19.388Z,4.47
2023-03-17T13:28:54.781Z,12.93
2023-03-17T13:31:29.107Z,9.60
2023-03-17T13:34:10.798Z,9.88
2023-03-17T13:36:46.784Z,12.10
2023-03-17T13:39:56.672Z,5.13
2023-03-17T13:42:34.721Z,5.22
2023-03-17T13:45:17.786Z,4.82
2023-03-17T13:47:45.992Z,4.72
2023-03-17T13:50:30.709Z,3.92
2023-03-17T13:53:10.448Z,4.55
2023-03-17T13:56:09.859Z,4.53
2023-03-17T14:01:07.346Z,4.30
2023-03-17T14:03:43.813Z,5.90
2023-03-17T14:06:12.886Z,4.88
2023-03-17T14:08:50.842Z,4.22
2023-03-17T14:11:36.210Z,4.53
2023-03-17T14:14:33.041Z,5.05
2023-03-17T14:17:19.430Z,5.20
2023-03-17T14:20:12.721Z,4.53
2023-03-17T14:22:45.561Z,4.65
2023-03-17T14:25:42.669Z,4.95
2023-03-17T14:28:12.998Z,5.07
2023-03-17T14:30:46.846Z,5.20
2023-03-17T14:33:20.749Z,5.28
2023-03-17T14:35:56.830Z,7.75
2023-03-17T14:38:28.778Z,7.63
2023-03-17T14:41:22.879Z,6.88
2023-03-17T14:43:52.135Z,6.30
2023-03-17T14:46:31.872Z,5.80
2023-03-17T14:49:01.221Z,5.15
2023-03-17T14:51:31.318Z,5.32
2023-03-17T14:54:08.781Z,5.22
2023-03-17T14:56:37.400Z,5.15
2023-03-17T14:59:15.852Z,5.45
2023-03-17T15:01:44.522Z,4.63
2023-03-17T15:04:23.815Z,5.32
2023-03-17T15:06:54.960Z,5.85
2023-03-17T15:09:32.787Z,5.55
2023-03-17T15:12:32.306Z,5.80
2023-03-17T15:17:34.400Z,5.18
2023-03-17T15:20:04.923Z,5.90
2023-03-17T15:22:41.735Z,5.13
2023-03-17T15:25:33.802Z,5.53
2023-03-17T15:28:07.769Z,5.70
2023-03-17T15:30:46.621Z,5.82
2023-03-17T15:33:28.896Z,5.30
2023-03-17T15:36:02.471Z,6.20
2023-03-17T15:38:36.835Z,5.70
2023-03-17T15:41:03.927Z,6.47
2023-03-17T15:43:37.797Z,5.85
2023-03-17T15:46:07.149Z,5.68
2023-03-17T15:48:36.328Z,5.72
2023-03-17T15:51:09.855Z,6.28
2023-03-17T15:53:43.796Z,5.75
2023-03-17T15:56:25.768Z,5.57
2023-03-17T15:58:52.903Z,6.20
2023-03-17T16:01:20.743Z,6.03
2023-03-17T16:03:54.943Z,5.95
2023-03-17T16:06:22.636Z,6.03
2023-03-17T16:11:30.341Z,5.30
2023-03-17T16:14:06.013Z,6.28
2023-03-17T16:16:33.466Z,5.97
2023-03-17T16:19:00.761Z,6.28
2023-03-17T16:21:35.808Z,6.57
2023-03-17T16:24:03.035Z,7.00
2023-03-17T16:26:30.333Z,6.72
2023-03-17T16:29:04.685Z,6.70
2023-03-17T16:31:38.724Z,6.18
2023-03-17T16:34:15.065Z,6.32
2023-03-17T16:36:50.789Z,5.68
2023-03-17T16:39:22.552Z,6.88
2023-03-17T16:41:59.846Z,7.07
2023-03-17T16:44:27.671Z,6.57
2023-03-17T16:46:54.941Z,7.13
2023-03-17T16:49:29.773Z,8.98
2023-03-17T16:51:56.938Z,6.63
2023-03-17T16:54:30.840Z,6.85
2023-03-17T16:57:07.621Z,6.85
2023-03-17T16:59:41.769Z,6.65
2023-03-17T17:02:16.752Z,7.40
2023-03-17T17:04:50.911Z,9.10
2023-03-17T17:07:18.088Z,10.00
2023-03-17T17:09:45.270Z,8.93
2023-03-17T17:12:18.928Z,8.35
2023-03-17T17:14:46.204Z,7.75
2023-03-17T17:17:13.670Z,8.63
2023-03-17T17:19:47.762Z,7.75
2023-03-17T17:22:15.398Z,8.20
2023-03-17T17:24:48.749Z,7.97
2023-03-17T17:27:15.885Z,7.20
2023-03-17T17:29:50.015Z,8.65
2023-03-17T17:32:18.973Z,7.72
2023-03-17T17:34:46.189Z,7.90
2023-03-17T17:37:19.769Z,9.20
2023-03-17T17:39:46.892Z,8.10
2023-03-17T17:42:20.894Z,7.90
2023-03-17T17:44:48.160Z,10.80
2023-03-17T17:47:15.693Z,9.93
2023-03-17T17:49:49.777Z,7.60
2023-03-17T17:52:18.101Z,9.43
2023-03-17T17:54:51.731Z,8.60
2023-03-17T17:57:19.226Z,7.80
2023-03-17T18:02:20.412Z,7.70
2023-03-17T18:04:47.795Z,8.95
2023-03-17T18:07:21.772Z,8.63
2023-03-17T18:09:49.226Z,8.73
2023-03-17T18:14:49.735Z,10.32
2023-03-17T18:17:21.666Z,8.82
2023-03-17T18:19:55.926Z,9.25
2023-03-17T18:22:23.096Z,9.02
2023-03-17T18:24:50.552Z,8.35
2023-03-17T18:27:23.797Z,10.20
2023-03-17T18:29:50.966Z,12.50
2023-03-17T18:32:24.959Z,10.27
2023-03-17T18:34:52.210Z,9.82
2023-03-17T18:37:19.608Z,10.38
2023-03-17T18:40:12.044Z,8.77
2023-03-17T18:42:48.064Z,9.65
2023-03-17T18:45:21.879Z,9.45
2023-03-17T18:47:55.870Z,9.80
2023-03-17T18:50:30.152Z,10.68
2023-03-17T18:52:57.430Z,11.48
2023-03-17T18:55:44.050Z,10.77
2023-03-17T18:58:11.446Z,10.55
2023-03-17T19:00:38.620Z,11.82
2023-03-17T19:03:12.873Z,11.05
2023-03-17T19:05:40.992Z,10.80
2023-03-17T19:08:15.103Z,10.82
2023-03-17T19:10:43.992Z,19.77
2023-03-17T19:13:11.108Z,31.52
2023-03-17T19:15:44.896Z,11.73
2023-03-17T19:18:12.158Z,11.25
2023-03-17T19:20:46.067Z,10.73
2023-03-17T19:23:13.661Z,11.98
2023-03-17T19:28:14.829Z,12.32
2023-03-17T19:30:44.871Z,11.52
2023-03-17T19:33:18.960Z,17.95
2023-03-17T19:35:47.238Z,11.57
2023-03-17T19:38:14.386Z,10.70
2023-03-17T19:40:48.838Z,11.48
2023-03-17T19:43:28.847Z,11.20
2023-03-17T19:46:10.123Z,11.93
2023-03-17T19:48:37.560Z,12.60
2023-03-17T19:51:04.888Z,11.90
2023-03-17T19:53:38.916Z,12.38
2023-03-17T19:56:12.771Z,11.77
2023-03-17T19:58:47.081Z,12.77
2023-03-17T20:01:14.767Z,13.27
2023-03-17T20:03:42.687Z,13.75
2023-03-17T20:06:17.127Z,12.57
2023-03-17T20:08:44.559Z,13.20
2023-03-17T20:11:12.472Z,12.82
2023-03-17T20:13:46.839Z,14.18
2023-03-17T20:16:17.245Z,14.25
2023-03-17T20:18:44.414Z,12.95
2023-03-17T20:21:20.998Z,13.52
2023-03-17T20:23:48.253Z,13.75
2023-03-17T20:26:22.001Z,13.95
2023-03-17T20:28:49.188Z,14.80
2023-03-17T20:31:17.132Z,14.43
2023-03-17T20:33:50.931Z,14.95
2023-03-17T20:36:18.164Z,15.23
2023-03-17T20:38:52.126Z,16.15
2023-03-17T20:41:20.970Z,15.57
2023-03-17T20:43:48.180Z,16.33
2023-03-17T20:46:23.063Z,13.98
2023-03-17T20:48:58.255Z,15.30
2023-03-17T20:51:32.929Z,14.55
2023-03-17T20:54:08.309Z,14.93
2023-03-17T20:56:48.965Z,15.35
2023-03-17T20:59:16.711Z,15.30
2023-03-17T21:01:45.114Z,15.05
2023-03-17T21:04:21.765Z,15.73
2023-03-17T21:06:49.746Z,16.75
2023-03-17T21:09:23.998Z,16.08
2023-03-17T21:11:51.265Z,16.27
2023-03-17T21:14:18.369Z,15.20
2023-03-17T21:16:54.053Z,14.95
2023-03-17T21:19:21.898Z,15.50
2023-03-17T21:21:49.018Z,13.18
2023-03-17T21:24:30.884Z,14.50
2023-03-17T21:26:59.643Z,14.40
2023-03-17T21:29:33.906Z,14.45
2023-03-17T21:32:04.926Z,15.07
2023-03-17T21:34:38.891Z,16.10
2023-03-17T21:37:06.167Z,15.00
2023-03-17T21:39:33.915Z,15.93
2023-03-17T21:42:09.116Z,14.93
2023-03-17T21:44:36.231Z,14.93
2023-03-17T21:47:09.958Z,14.75
2023-03-17T21:49:37.233Z,14.95
2023-03-17T21:52:04.773Z,12.85
2023-03-17T21:57:13.346Z,14.18
2023-03-17T21:59:46.955Z,14.48
2023-03-17T22:02:17.499Z,13.40
2023-03-17T22:04:46.687Z,13.48
2023-03-17T22:07:20.970Z,13.85
2023-03-17T22:09:48.227Z,13.57
2023-03-17T22:12:22.111Z,14.88
2023-03-17T22:14:49.350Z,14.85
2023-03-17T22:17:16.802Z,14.60
2023-03-17T22:19:50.832Z,13.55
2023-03-17T22:22:18.508Z,14.27
2023-03-17T22:24:45.819Z,15.15
2023-03-17T22:27:20.827Z,14.95
2023-03-17T22:29:48.111Z,14.68
2023-03-17T22:32:21.885Z,15.55
2023-03-17T22:34:48.976Z,13.35
2023-03-17T22:37:23.119Z,14.23
2023-03-17T22:39:50.240Z,14.30
2023-03-17T22:42:17.600Z,14.18
2023-03-17T22:44:51.005Z,15.23
2023-03-17T22:47:18.199Z,15.60
2023-03-17T22:49:51.931Z,15.32
2023-03-17T22:52:19.156Z,15.82
2023-03-17T22:55:06.059Z,15.15
2023-03-17T22:57:33.435Z,16.10
2023-03-17T23:00:00.536Z,15.82
2023-03-17T23:02:33.897Z,14.70
2023-03-17T23:05:01.130Z,16.00
2023-03-17T23:07:47.804Z,16.58
2023-03-17T23:12:51.087Z,15.75
2023-03-17T23:15:18.914Z,16.75
2023-03-17T23:17:47.023Z,16.60
2023-03-17T23:20:21.835Z,15.43
2023-03-17T23:22:49.005Z,16.10
2023-03-17T23:25:22.997Z,16.65
2023-03-17T23:27:50.793Z,16.02
2023-03-17T23:30:17.956Z,16.30
2023-03-17T23:32:51.853Z,17.15
2023-03-17T23:35:20.409Z,14.32
2023-03-17T23:37:54.025Z,16.67
2023-03-17T23:40:22.110Z,16.02
2023-03-17T23:42:49.259Z,16.83
2023-03-17T23:45:24.940Z,16.45
2023-03-17T23:47:52.820Z,16.95
2023-03-17T23:50:28.141Z,17.83
2023-03-17T23:52:55.346Z,17.05
2023-03-17T23:55:41.893Z,17.80
2023-03-17T23:58:09.068Z,17.20
